createdAt,value
2018-11-22T12:17:55.736Z,22.20
2018-11-22T12:27:56.971Z,21.80
2018-11-22T12:37:58.276Z,22.40
2018-11-22T12:47:59.628Z,24.00
2018-11-22T12:58:00.905Z,20.93
2018-11-22T13:08:02.994Z,21.70
2018-11-22T13:18:04.607Z,21.23
2018-11-22T14:28:48.806Z,24.47
2018-11-22T15:19:21.043Z,22.00
2018-11-22T15:29:22.453Z,23.60
2018-11-22T15:39:23.712Z,20.53
2018-11-22T15:49:25.013Z,23.63
2018-11-22T15:59:27.352Z,24.30
2018-11-22T16:09:28.611Z,25.00
2018-11-22T17:00:01.034Z,25.13
2018-11-22T17:10:04.358Z,26.00
2018-11-22T17:20:05.619Z,26.87
2018-11-22T17:30:11.246Z,26.90
2018-11-22T18:10:30.057Z,28.33
2018-11-22T18:20:31.352Z,24.77
2018-11-22T18:30:32.600Z,25.10
2018-11-22T18:40:33.920Z,22.40
2018-11-22T18:50:35.192Z,23.63
2018-11-22T19:00:37.227Z,24.17
2018-11-22T19:10:38.614Z,27.73
2018-11-22T19:20:39.885Z,23.13
2018-11-22T19:30:43.033Z,25.43
2018-11-22T19:40:45.051Z,23.80
2018-11-22T19:50:46.540Z,24.13
2018-11-22T20:00:47.785Z,22.97
2018-11-22T20:10:49.047Z,23.13
2018-11-22T20:20:50.293Z,24.50
2018-11-22T20:30:51.548Z,24.37
2018-11-22T20:40:57.584Z,22.70
2018-11-22T20:50:58.856Z,22.73
2018-11-22T21:01:00.336Z,23.37
2018-11-22T21:11:01.616Z,23.53
2018-11-22T21:21:03.658Z,23.23
2018-11-22T21:31:04.923Z,26.13
2018-11-22T21:41:06.911Z,27.17
2018-11-22T21:51:08.140Z,27.90
2018-11-22T22:01:09.381Z,26.23
2018-11-22T22:11:10.671Z,26.73
2018-11-22T22:21:11.927Z,27.30
2018-11-22T22:31:13.960Z,29.53
2018-11-22T22:41:15.240Z,31.53
2018-11-22T22:51:17.268Z,32.77
2018-11-22T23:01:18.543Z,30.37
2018-11-22T23:11:20.548Z,31.20
2018-11-22T23:21:22.555Z,27.97
2018-11-22T23:31:23.795Z,24.17
2018-11-22T23:41:25.034Z,24.73
